DLH123 EDDF-EDDL
Flight info
| Callsign | DLH123 |
|---|---|
| Flight time | 1h 2m |
| Altitude | 22000 |
| Route | MARUN3W/25C MARUN Y152 ARPEG Z850 ADEMI T854 DOMUX DOMUX1A |
| Aircraft | B738/M-SDE2E3FGHIRWXY/LB1 |
Departure
| Time | 2026-05-05 19:28 |
|---|---|
| Airport | Frankfurt Main Airport (EDDF) |
Arrival
| Time | 2026-05-05 20:31 |
|---|---|
| Airport | Düsseldorf Airport (EDDL) |
| Time | Latitude | Longitude | Altitude | Speed | Heading |
|---|---|---|---|---|---|
| 2026-05-05 18:14 | 50.04653 | 8.56806 | 370 ft | 0 kts | 295° |
| 2026-05-05 19:16 | 50.04644 | 8.56839 | 370 ft | 4 kts | 295° |
| 2026-05-05 19:17 | 50.04637 | 8.56864 | 370 ft | 2 kts | 287° |
| 2026-05-05 19:17 | 50.04636 | 8.56885 | 370 ft | 1 kts | 263° |
| 2026-05-05 19:17 | 50.04639 | 8.56903 | 370 ft | 1 kts | 241° |
| 2026-05-05 19:17 | 50.04646 | 8.56918 | 370 ft | 1 kts | 218° |
| 2026-05-05 19:18 | 50.04657 | 8.56929 | 370 ft | 0 kts | 205° |
| 2026-05-05 19:20 | 50.04642 | 8.56917 | 370 ft | 6 kts | 205° |
| 2026-05-05 19:21 | 50.04578 | 8.56874 | 370 ft | 15 kts | 200° |
| 2026-05-05 19:21 | 50.04470 | 8.56851 | 370 ft | 14 kts | 182° |
| 2026-05-05 19:21 | 50.04360 | 8.56830 | 370 ft | 16 kts | 191° |
| 2026-05-05 19:21 | 50.04285 | 8.56908 | 370 ft | 14 kts | 85° |
| 2026-05-05 19:22 | 50.04317 | 8.57068 | 370 ft | 18 kts | 70° |
| 2026-05-05 19:22 | 50.04372 | 8.57299 | 370 ft | 28 kts | 70° |
| 2026-05-05 19:22 | 50.04453 | 8.57635 | 370 ft | 37 kts | 70° |
| 2026-05-05 19:22 | 50.04544 | 8.58000 | 370 ft | 33 kts | 70° |
| 2026-05-05 19:23 | 50.04624 | 8.58345 | 370 ft | 21 kts | 68° |
| 2026-05-05 19:23 | 50.04653 | 8.58468 | 370 ft | 18 kts | 81° |
| 2026-05-05 19:23 | 50.04632 | 8.58560 | 370 ft | 0 kts | 140° |
| 2026-05-05 19:25 | 50.04587 | 8.58594 | 370 ft | 14 kts | 168° |
| 2026-05-05 19:25 | 50.04492 | 8.58558 | 370 ft | 14 kts | 219° |
| 2026-05-05 19:25 | 50.04460 | 8.58484 | 370 ft | 0 kts | 244° |
| 2026-05-05 19:27 | 50.04458 | 8.58476 | 370 ft | 2 kts | 248° |
| 2026-05-05 19:27 | 50.04451 | 8.58449 | 370 ft | 0 kts | 250° |
| 2026-05-05 19:27 | 50.04448 | 8.58437 | 370 ft | 14 kts | 250° |
| 2026-05-05 19:28 | 50.04273 | 8.57711 | 371 ft | 125 kts | 250° |
| 2026-05-05 19:28 | 50.03883 | 8.56087 | 845 ft | 176 kts | 249° |
| 2026-05-05 19:28 | 50.03455 | 8.54392 | 1964 ft | 179 kts | 250° |
| 2026-05-05 19:28 | 50.03057 | 8.52676 | 3294 ft | 158 kts | 250° |
| 2026-05-05 19:29 | 50.02770 | 8.51412 | 4632 ft | 120 kts | 251° |
| 2026-05-05 19:29 | 50.02425 | 8.50336 | 5383 ft | 120 kts | 237° |
| 2026-05-05 19:29 | 50.01717 | 8.48939 | 4989 ft | 217 kts | 228° |
| 2026-05-05 19:29 | 50.00436 | 8.47002 | 4942 ft | 285 kts | 220° |
| 2026-05-05 19:30 | 49.99087 | 8.45492 | 7658 ft | 218 kts | 209° |
| 2026-05-05 19:30 | 49.98146 | 8.44948 | 10065 ft | 135 kts | 187° |
| 2026-05-05 19:30 | 49.97187 | 8.45059 | 10309 ft | 180 kts | 165° |
| 2026-05-05 19:30 | 49.95718 | 8.46101 | 9022 ft | 278 kts | 148° |
| 2026-05-05 19:31 | 49.94190 | 8.47955 | 8697 ft | 273 kts | 136° |
| 2026-05-05 19:31 | 49.93036 | 8.50047 | 9428 ft | 251 kts | 125° |
| 2026-05-05 19:31 | 49.92251 | 8.52315 | 11028 ft | 237 kts | 111° |
| 2026-05-05 19:31 | 49.91913 | 8.54481 | 12821 ft | 194 kts | 98° |
| 2026-05-05 19:32 | 49.91840 | 8.56643 | 11810 ft | 241 kts | 88° |
| 2026-05-05 19:32 | 49.91624 | 8.59463 | 10006 ft | 296 kts | 112° |
| 2026-05-05 19:32 | 49.90571 | 8.62001 | 10168 ft | 272 kts | 131° |
| 2026-05-05 19:32 | 49.89050 | 8.63873 | 9528 ft | 281 kts | 154° |
| 2026-05-05 19:33 | 49.87212 | 8.64718 | 9318 ft | 274 kts | 174° |
| 2026-05-05 19:33 | 49.85329 | 8.64520 | 8881 ft | 275 kts | 195° |
| 2026-05-05 19:33 | 49.83551 | 8.63395 | 7669 ft | 307 kts | 210° |
| 2026-05-05 19:33 | 49.82016 | 8.61119 | 7189 ft | 300 kts | 236° |
| 2026-05-05 19:34 | 49.81150 | 8.58332 | 7095 ft | 286 kts | 254° |
| 2026-05-05 19:34 | 49.80895 | 8.55345 | 7019 ft | 272 kts | 268° |
| 2026-05-05 19:34 | 49.80904 | 8.52476 | 6994 ft | 263 kts | 274° |
| 2026-05-05 19:35 | 49.81483 | 8.46870 | 7006 ft | 272 kts | 286° |
| 2026-05-05 19:35 | 49.82100 | 8.44109 | 8558 ft | 270 kts | 292° |
| 2026-05-05 19:35 | 49.82899 | 8.41517 | 9848 ft | 279 kts | 300° |
| 2026-05-05 19:35 | 49.83979 | 8.39016 | 11206 ft | 283 kts | 308° |
| 2026-05-05 19:36 | 49.85308 | 8.36782 | 12437 ft | 289 kts | 318° |
| 2026-05-05 19:36 | 49.86869 | 8.34908 | 12900 ft | 291 kts | 328° |
| 2026-05-05 19:36 | 49.88649 | 8.33572 | 12991 ft | 294 kts | 340° |
| 2026-05-05 19:36 | 49.90650 | 8.32889 | 12977 ft | 294 kts | 355° |
| 2026-05-05 19:37 | 49.92672 | 8.33040 | 12989 ft | 292 kts | 7° |
| 2026-05-05 19:37 | 49.94693 | 8.33422 | 12994 ft | 293 kts | 4° |
| 2026-05-05 19:37 | 49.96648 | 8.33116 | 12977 ft | 292 kts | 343° |
| 2026-05-05 19:37 | 49.98496 | 8.31883 | 13009 ft | 292 kts | 334° |
| 2026-05-05 19:38 | 50.00372 | 8.30594 | 12998 ft | 293 kts | 336° |
| 2026-05-05 19:38 | 50.02169 | 8.29410 | 13000 ft | 293 kts | 337° |
| 2026-05-05 19:38 | 50.03978 | 8.28601 | 12986 ft | 292 kts | 348° |
| 2026-05-05 19:38 | 50.05975 | 8.28384 | 12976 ft | 293 kts | 6° |
| 2026-05-05 19:39 | 50.07945 | 8.29250 | 13101 ft | 304 kts | 23° |
| 2026-05-05 19:39 | 50.09867 | 8.30379 | 14643 ft | 295 kts | 19° |
| 2026-05-05 19:39 | 50.11832 | 8.31433 | 15667 ft | 305 kts | 18° |
| 2026-05-05 19:39 | 50.13901 | 8.32520 | 16147 ft | 333 kts | 18° |
| 2026-05-05 19:40 | 50.16127 | 8.33686 | 16948 ft | 336 kts | 18° |
| 2026-05-05 19:40 | 50.17535 | 8.34425 | 16965 ft | 342 kts | 18° |
| 2026-05-05 19:40 | 50.20435 | 8.35948 | 17002 ft | 343 kts | 18° |
| 2026-05-05 19:40 | 50.22681 | 8.37129 | 16999 ft | 342 kts | 18° |
| 2026-05-05 19:41 | 50.24932 | 8.38313 | 16998 ft | 342 kts | 18° |
| 2026-05-05 19:41 | 50.26432 | 8.39103 | 17000 ft | 342 kts | 18° |
| 2026-05-05 19:41 | 50.29427 | 8.40690 | 16999 ft | 342 kts | 19° |
| 2026-05-05 19:41 | 50.31673 | 8.41910 | 17000 ft | 342 kts | 19° |
| 2026-05-05 19:42 | 50.33909 | 8.43127 | 17000 ft | 342 kts | 19° |
| 2026-05-05 19:42 | 50.36146 | 8.44347 | 17000 ft | 342 kts | 19° |
| 2026-05-05 19:42 | 50.38403 | 8.45579 | 17638 ft | 350 kts | 19° |
| 2026-05-05 19:42 | 50.40684 | 8.46825 | 18888 ft | 350 kts | 19° |
| 2026-05-05 19:43 | 50.42999 | 8.48091 | 19845 ft | 356 kts | 19° |
| 2026-05-05 19:43 | 50.45358 | 8.49382 | 20804 ft | 362 kts | 19° |
| 2026-05-05 19:43 | 50.47732 | 8.50648 | 21721 ft | 363 kts | 17° |
| 2026-05-05 19:43 | 50.50137 | 8.51804 | 21931 ft | 367 kts | 16° |
| 2026-05-05 19:44 | 50.52613 | 8.52987 | 21995 ft | 370 kts | 16° |
| 2026-05-05 19:44 | 50.55062 | 8.54158 | 21997 ft | 369 kts | 16° |
| 2026-05-05 19:44 | 50.56304 | 8.54754 | 21999 ft | 369 kts | 16° |
| 2026-05-05 19:44 | 50.58419 | 8.55768 | 21999 ft | 368 kts | 16° |
| 2026-05-05 19:45 | 50.60831 | 8.56925 | 21999 ft | 368 kts | 16° |
| 2026-05-05 19:45 | 50.63294 | 8.58108 | 22000 ft | 368 kts | 16° |
| 2026-05-05 19:45 | 50.65757 | 8.59293 | 22000 ft | 368 kts | 16° |
| 2026-05-05 19:45 | 50.68180 | 8.60459 | 22000 ft | 368 kts | 16° |
| 2026-05-05 19:46 | 50.70643 | 8.61646 | 22000 ft | 368 kts | 16° |
| 2026-05-05 19:46 | 50.73104 | 8.62834 | 22000 ft | 368 kts | 16° |
| 2026-05-05 19:46 | 50.75541 | 8.64011 | 22000 ft | 368 kts | 16° |
| 2026-05-05 19:46 | 50.78003 | 8.65202 | 22000 ft | 368 kts | 17° |
| 2026-05-05 19:47 | 50.80448 | 8.66385 | 22000 ft | 368 kts | 17° |
| 2026-05-05 19:47 | 50.82917 | 8.67407 | 21977 ft | 369 kts | 8° |
| 2026-05-05 19:47 | 50.85463 | 8.67403 | 22003 ft | 368 kts | 352° |
| 2026-05-05 19:47 | 50.87925 | 8.66298 | 21996 ft | 368 kts | 336° |
| 2026-05-05 19:48 | 50.90099 | 8.64175 | 21997 ft | 369 kts | 321° |
| 2026-05-05 19:48 | 50.91814 | 8.61221 | 21998 ft | 368 kts | 305° |
| 2026-05-05 19:48 | 50.92973 | 8.57592 | 21997 ft | 368 kts | 289° |
| 2026-05-05 19:48 | 50.93539 | 8.53637 | 22017 ft | 368 kts | 281° |
| 2026-05-05 19:49 | 50.93998 | 8.49658 | 21998 ft | 369 kts | 281° |
| 2026-05-05 19:49 | 50.94344 | 8.46961 | 21990 ft | 369 kts | 285° |
| 2026-05-05 19:49 | 50.95828 | 8.42140 | 22010 ft | 368 kts | 305° |
| 2026-05-05 19:49 | 50.97368 | 8.38893 | 22002 ft | 369 kts | 309° |
| 2026-05-05 19:50 | 50.98969 | 8.35765 | 22001 ft | 369 kts | 310° |
| 2026-05-05 19:50 | 51.00630 | 8.32644 | 21992 ft | 368 kts | 313° |
| 2026-05-05 19:50 | 51.02644 | 8.30074 | 22012 ft | 367 kts | 326° |
| 2026-05-05 19:50 | 51.04795 | 8.27955 | 21997 ft | 369 kts | 329° |
| 2026-05-05 19:51 | 51.07008 | 8.25916 | 22001 ft | 369 kts | 330° |
| 2026-05-05 19:51 | 51.09248 | 8.23894 | 22000 ft | 368 kts | 330° |
| 2026-05-05 19:51 | 51.11488 | 8.21891 | 21999 ft | 368 kts | 330° |
| 2026-05-05 19:51 | 51.13720 | 8.19900 | 22000 ft | 368 kts | 330° |
| 2026-05-05 19:52 | 51.15948 | 8.17911 | 22000 ft | 368 kts | 330° |
| 2026-05-05 19:52 | 51.18216 | 8.16010 | 21981 ft | 369 kts | 338° |
| 2026-05-05 19:52 | 51.20683 | 8.15034 | 22003 ft | 368 kts | 354° |
| 2026-05-05 19:52 | 51.23247 | 8.15168 | 21995 ft | 368 kts | 9° |
| 2026-05-05 19:53 | 51.25664 | 8.16397 | 21997 ft | 369 kts | 25° |
| 2026-05-05 19:53 | 51.27811 | 8.18665 | 21998 ft | 368 kts | 41° |
| 2026-05-05 19:53 | 51.29484 | 8.21781 | 21997 ft | 368 kts | 57° |
| 2026-05-05 19:53 | 51.30547 | 8.25451 | 21997 ft | 368 kts | 72° |
| 2026-05-05 19:54 | 51.30952 | 8.29448 | 21997 ft | 368 kts | 88° |
| 2026-05-05 19:54 | 51.30656 | 8.33533 | 21997 ft | 368 kts | 104° |
| 2026-05-05 19:54 | 51.29678 | 8.37313 | 21997 ft | 368 kts | 120° |
| 2026-05-05 19:54 | 51.28102 | 8.40509 | 21997 ft | 368 kts | 136° |
| 2026-05-05 19:55 | 51.26064 | 8.42881 | 21997 ft | 368 kts | 151° |
| 2026-05-05 19:55 | 51.23666 | 8.44302 | 21997 ft | 368 kts | 167° |
| 2026-05-05 19:55 | 51.21130 | 8.44800 | 22027 ft | 375 kts | 174° |
| 2026-05-05 19:55 | 51.18486 | 8.45186 | 22003 ft | 383 kts | 174° |
| 2026-05-05 19:56 | 51.15843 | 8.45565 | 22001 ft | 383 kts | 174° |
| 2026-05-05 19:56 | 51.13201 | 8.45942 | 21999 ft | 382 kts | 174° |
| 2026-05-05 19:56 | 51.10553 | 8.46319 | 21999 ft | 382 kts | 174° |
| 2026-05-05 19:56 | 51.07932 | 8.46690 | 22000 ft | 382 kts | 174° |
| 2026-05-05 19:57 | 51.05290 | 8.47063 | 22000 ft | 382 kts | 174° |
| 2026-05-05 19:57 | 51.03511 | 8.47314 | 22000 ft | 382 kts | 174° |
| 2026-05-05 19:57 | 51.00055 | 8.48277 | 21980 ft | 381 kts | 160° |
| 2026-05-05 19:57 | 50.97703 | 8.50153 | 22006 ft | 381 kts | 148° |
| 2026-05-05 19:58 | 50.95476 | 8.52473 | 22002 ft | 382 kts | 145° |
| 2026-05-05 19:58 | 50.93306 | 8.54838 | 21993 ft | 376 kts | 145° |
| 2026-05-05 19:58 | 50.91235 | 8.57121 | 21977 ft | 356 kts | 144° |
| 2026-05-05 19:58 | 50.89251 | 8.59313 | 21982 ft | 341 kts | 144° |
| 2026-05-05 19:59 | 50.87315 | 8.61453 | 21983 ft | 341 kts | 144° |
| 2026-05-05 19:59 | 50.85346 | 8.63629 | 21999 ft | 347 kts | 144° |
| 2026-05-05 19:59 | 50.83363 | 8.65819 | 22000 ft | 349 kts | 145° |
| 2026-05-05 19:59 | 50.81290 | 8.67850 | 21977 ft | 349 kts | 156° |
| 2026-05-05 20:00 | 50.78964 | 8.68895 | 21978 ft | 348 kts | 173° |
| 2026-05-05 20:00 | 50.76560 | 8.68837 | 21983 ft | 348 kts | 189° |
| 2026-05-05 20:00 | 50.74284 | 8.67704 | 21994 ft | 348 kts | 206° |
| 2026-05-05 20:00 | 50.72286 | 8.65572 | 21998 ft | 349 kts | 223° |
| 2026-05-05 20:01 | 50.70746 | 8.62592 | 21999 ft | 349 kts | 239° |
| 2026-05-05 20:01 | 50.69823 | 8.59081 | 21999 ft | 348 kts | 256° |
| 2026-05-05 20:01 | 50.69575 | 8.55295 | 21999 ft | 348 kts | 273° |
| 2026-05-05 20:01 | 50.70019 | 8.51576 | 21999 ft | 348 kts | 289° |
| 2026-05-05 20:02 | 50.71125 | 8.48189 | 22000 ft | 348 kts | 306° |
| 2026-05-05 20:02 | 50.72788 | 8.45458 | 21999 ft | 348 kts | 322° |
| 2026-05-05 20:02 | 50.74891 | 8.43577 | 22000 ft | 348 kts | 339° |
| 2026-05-05 20:02 | 50.77185 | 8.42265 | 22008 ft | 349 kts | 341° |
| 2026-05-05 20:03 | 50.79456 | 8.40981 | 22001 ft | 349 kts | 341° |
| 2026-05-05 20:03 | 50.81740 | 8.39688 | 21999 ft | 348 kts | 341° |
| 2026-05-05 20:03 | 50.83305 | 8.38801 | 22000 ft | 348 kts | 341° |
| 2026-05-05 20:03 | 50.85585 | 8.37508 | 22000 ft | 348 kts | 341° |
| 2026-05-05 20:04 | 50.87852 | 8.36220 | 21990 ft | 342 kts | 341° |
| 2026-05-05 20:04 | 50.90054 | 8.34967 | 21979 ft | 333 kts | 340° |
| 2026-05-05 20:04 | 50.92211 | 8.33737 | 21984 ft | 332 kts | 340° |
| 2026-05-05 20:04 | 50.94387 | 8.32495 | 21998 ft | 334 kts | 340° |
| 2026-05-05 20:05 | 50.96605 | 8.31228 | 21999 ft | 335 kts | 340° |
| 2026-05-05 20:05 | 50.98780 | 8.29983 | 22000 ft | 335 kts | 340° |
| 2026-05-05 20:05 | 51.01014 | 8.28865 | 21973 ft | 336 kts | 349° |
| 2026-05-05 20:05 | 51.03298 | 8.28163 | 21988 ft | 335 kts | 343° |
| 2026-05-05 20:06 | 51.05441 | 8.26860 | 22005 ft | 335 kts | 335° |
| 2026-05-05 20:06 | 51.07516 | 8.25260 | 21626 ft | 333 kts | 332° |
| 2026-05-05 20:06 | 51.09559 | 8.23535 | 21152 ft | 331 kts | 331° |
| 2026-05-05 20:06 | 51.11577 | 8.21778 | 20698 ft | 329 kts | 331° |
| 2026-05-05 20:07 | 51.13553 | 8.20035 | 20267 ft | 326 kts | 330° |
| 2026-05-05 20:07 | 51.15524 | 8.18284 | 19820 ft | 324 kts | 330° |
| 2026-05-05 20:07 | 51.17398 | 8.16614 | 19401 ft | 322 kts | 330° |
| 2026-05-05 20:07 | 51.19330 | 8.14889 | 18969 ft | 320 kts | 330° |
| 2026-05-05 20:08 | 51.21287 | 8.13139 | 18814 ft | 321 kts | 330° |
| 2026-05-05 20:08 | 51.23237 | 8.11395 | 18801 ft | 319 kts | 330° |
| 2026-05-05 20:08 | 51.25156 | 8.09676 | 18800 ft | 318 kts | 330° |
| 2026-05-05 20:08 | 51.27087 | 8.07944 | 18800 ft | 319 kts | 330° |
| 2026-05-05 20:09 | 51.29028 | 8.06202 | 18800 ft | 319 kts | 330° |
| 2026-05-05 20:09 | 51.30960 | 8.04465 | 18800 ft | 319 kts | 330° |
| 2026-05-05 20:09 | 51.32907 | 8.02715 | 18799 ft | 319 kts | 330° |
| 2026-05-05 20:09 | 51.34842 | 8.00973 | 18799 ft | 319 kts | 330° |
| 2026-05-05 20:10 | 51.36736 | 7.99265 | 18779 ft | 308 kts | 330° |
| 2026-05-05 20:10 | 51.38581 | 7.97601 | 18445 ft | 305 kts | 330° |
| 2026-05-05 20:10 | 51.40416 | 7.95944 | 18043 ft | 303 kts | 330° |
| 2026-05-05 20:10 | 51.42255 | 7.94289 | 17660 ft | 301 kts | 330° |
| 2026-05-05 20:11 | 51.44066 | 7.92632 | 17264 ft | 300 kts | 327° |
| 2026-05-05 20:11 | 51.45587 | 7.90342 | 16836 ft | 298 kts | 306° |
| 2026-05-05 20:11 | 51.46497 | 7.87412 | 16643 ft | 289 kts | 285° |
| 2026-05-05 20:11 | 51.46737 | 7.84276 | 16584 ft | 276 kts | 269° |
| 2026-05-05 20:12 | 51.46569 | 7.81212 | 16243 ft | 275 kts | 261° |
| 2026-05-05 20:12 | 51.46240 | 7.78411 | 15971 ft | 270 kts | 258° |
| 2026-05-05 20:12 | 51.45793 | 7.75374 | 15453 ft | 272 kts | 256° |
| 2026-05-05 20:12 | 51.45332 | 7.72543 | 15060 ft | 269 kts | 255° |
| 2026-05-05 20:13 | 51.44840 | 7.69673 | 14646 ft | 268 kts | 255° |
| 2026-05-05 20:13 | 51.44349 | 7.66876 | 14240 ft | 266 kts | 254° |
| 2026-05-05 20:13 | 51.43829 | 7.63952 | 13818 ft | 264 kts | 254° |
| 2026-05-05 20:13 | 51.43321 | 7.61116 | 13409 ft | 263 kts | 254° |
| 2026-05-05 20:14 | 51.42814 | 7.58303 | 13059 ft | 263 kts | 254° |
| 2026-05-05 20:14 | 51.42310 | 7.55506 | 13014 ft | 261 kts | 254° |
| 2026-05-05 20:14 | 51.41878 | 7.53068 | 13003 ft | 260 kts | 255° |
| 2026-05-05 20:14 | 51.41343 | 7.49947 | 12736 ft | 259 kts | 255° |
| 2026-05-05 20:15 | 51.40867 | 7.47171 | 12414 ft | 253 kts | 255° |
| 2026-05-05 20:15 | 51.40405 | 7.44473 | 12013 ft | 253 kts | 255° |
| 2026-05-05 20:15 | 51.39938 | 7.41757 | 11651 ft | 251 kts | 255° |
| 2026-05-05 20:15 | 51.39475 | 7.39062 | 11275 ft | 250 kts | 255° |
| 2026-05-05 20:16 | 51.39014 | 7.36388 | 10868 ft | 248 kts | 255° |
| 2026-05-05 20:16 | 51.38560 | 7.33754 | 10458 ft | 247 kts | 254° |
| 2026-05-05 20:16 | 51.38102 | 7.31100 | 10047 ft | 245 kts | 254° |
| 2026-05-05 20:16 | 51.37650 | 7.28486 | 9644 ft | 244 kts | 254° |
| 2026-05-05 20:17 | 51.37198 | 7.25875 | 9243 ft | 242 kts | 254° |
| 2026-05-05 20:17 | 51.36748 | 7.23280 | 8844 ft | 241 kts | 254° |
| 2026-05-05 20:17 | 51.36299 | 7.20700 | 8449 ft | 240 kts | 254° |
| 2026-05-05 20:17 | 51.35857 | 7.18155 | 8061 ft | 238 kts | 254° |
| 2026-05-05 20:18 | 51.35412 | 7.15598 | 7672 ft | 237 kts | 254° |
| 2026-05-05 20:18 | 51.34972 | 7.13079 | 7290 ft | 236 kts | 254° |
| 2026-05-05 20:18 | 51.34528 | 7.10538 | 6905 ft | 234 kts | 254° |
| 2026-05-05 20:18 | 51.34095 | 7.08063 | 6532 ft | 233 kts | 254° |
| 2026-05-05 20:19 | 51.33656 | 7.05558 | 6155 ft | 232 kts | 254° |
| 2026-05-05 20:19 | 51.33223 | 7.03088 | 5784 ft | 230 kts | 254° |
| 2026-05-05 20:19 | 51.32791 | 7.00634 | 5417 ft | 229 kts | 254° |
| 2026-05-05 20:19 | 51.32362 | 6.98191 | 5053 ft | 228 kts | 254° |
| 2026-05-05 20:20 | 51.31932 | 6.95753 | 4691 ft | 227 kts | 254° |
| 2026-05-05 20:20 | 51.31505 | 6.93331 | 4332 ft | 226 kts | 254° |
| 2026-05-05 20:20 | 51.31076 | 6.90904 | 4049 ft | 227 kts | 254° |
| 2026-05-05 20:20 | 51.30654 | 6.88516 | 4003 ft | 221 kts | 254° |
| 2026-05-05 20:21 | 51.30244 | 6.86202 | 3980 ft | 208 kts | 254° |
| 2026-05-05 20:21 | 51.29861 | 6.84041 | 3972 ft | 199 kts | 254° |
| 2026-05-05 20:21 | 51.29487 | 6.81935 | 4061 ft | 199 kts | 254° |
| 2026-05-05 20:21 | 51.29098 | 6.79748 | 4035 ft | 203 kts | 254° |
| 2026-05-05 20:22 | 51.28711 | 6.77575 | 4019 ft | 203 kts | 254° |
| 2026-05-05 20:22 | 51.28207 | 6.75476 | 3992 ft | 203 kts | 239° |
| 2026-05-05 20:22 | 51.27412 | 6.73612 | 4012 ft | 204 kts | 234° |
| 2026-05-05 20:22 | 51.26560 | 6.71807 | 4005 ft | 203 kts | 232° |
| 2026-05-05 20:23 | 51.25697 | 6.70026 | 4004 ft | 203 kts | 232° |
| 2026-05-05 20:23 | 51.24848 | 6.68291 | 4005 ft | 191 kts | 232° |
| 2026-05-05 20:23 | 51.24043 | 6.66648 | 3975 ft | 185 kts | 232° |
| 2026-05-05 20:23 | 51.23243 | 6.65018 | 3229 ft | 193 kts | 232° |
| 2026-05-05 20:24 | 51.22420 | 6.63343 | 3040 ft | 188 kts | 232° |
| 2026-05-05 20:24 | 51.21625 | 6.61728 | 2996 ft | 182 kts | 232° |
| 2026-05-05 20:24 | 51.20872 | 6.60197 | 2969 ft | 168 kts | 232° |
| 2026-05-05 20:24 | 51.20150 | 6.58731 | 2991 ft | 167 kts | 232° |
| 2026-05-05 20:25 | 51.19436 | 6.57281 | 2998 ft | 168 kts | 232° |
| 2026-05-05 20:25 | 51.18710 | 6.55808 | 2999 ft | 169 kts | 232° |
| 2026-05-05 20:25 | 51.17889 | 6.54477 | 2973 ft | 169 kts | 211° |
| 2026-05-05 20:25 | 51.16761 | 6.54056 | 2986 ft | 168 kts | 176° |
| 2026-05-05 20:26 | 51.15683 | 6.54713 | 2989 ft | 169 kts | 143° |
| 2026-05-05 20:26 | 51.15018 | 6.56225 | 3001 ft | 166 kts | 109° |
| 2026-05-05 20:26 | 51.15007 | 6.58033 | 2988 ft | 163 kts | 73° |
| 2026-05-05 20:26 | 51.15640 | 6.59489 | 2993 ft | 163 kts | 38° |
| 2026-05-05 20:27 | 51.16662 | 6.60286 | 3011 ft | 164 kts | 22° |
| 2026-05-05 20:27 | 51.17726 | 6.60979 | 2999 ft | 163 kts | 22° |
| 2026-05-05 20:27 | 51.18644 | 6.61574 | 2999 ft | 163 kts | 22° |
| 2026-05-05 20:27 | 51.19832 | 6.62343 | 3000 ft | 163 kts | 22° |
| 2026-05-05 20:28 | 51.20851 | 6.63129 | 2999 ft | 163 kts | 28° |
| 2026-05-05 20:28 | 51.21860 | 6.63989 | 2966 ft | 166 kts | 28° |
| 2026-05-05 20:28 | 51.22201 | 6.64279 | 2906 ft | 164 kts | 28° |
| 2026-05-05 20:28 | 51.23594 | 6.65726 | 2545 ft | 150 kts | 39° |
| 2026-05-05 20:29 | 51.24202 | 6.66593 | 2311 ft | 148 kts | 45° |
| 2026-05-05 20:29 | 51.24778 | 6.67664 | 2049 ft | 146 kts | 54° |
| 2026-05-05 20:29 | 51.25551 | 6.69438 | 1645 ft | 145 kts | 56° |
| 2026-05-05 20:29 | 51.26070 | 6.70798 | 1354 ft | 144 kts | 58° |
| 2026-05-05 20:30 | 51.26637 | 6.72168 | 934 ft | 150 kts | 54° |
| 2026-05-05 20:30 | 51.27210 | 6.73527 | 612 ft | 146 kts | 57° |
| 2026-05-05 20:30 | 51.27792 | 6.74798 | 277 ft | 141 kts | 53° |
| 2026-05-05 20:30 | 51.28325 | 6.75954 | 125 ft | 125 kts | 54° |
| 2026-05-05 20:31 | 51.28777 | 6.76909 | 125 ft | 77 kts | 52° |
| 2026-05-05 20:31 | 51.28994 | 6.77362 | 123 ft | 33 kts | 58° |
| 2026-05-05 20:31 | 51.28991 | 6.77585 | 123 ft | 2 kts | 134° |
| 2026-05-05 20:32 | 51.28983 | 6.77598 | 123 ft | 7 kts | 134° |
| 2026-05-05 20:33 | 51.28914 | 6.77634 | 123 ft | 17 kts | 201° |
| 2026-05-05 20:33 | 51.28821 | 6.77482 | 124 ft | 17 kts | 232° |
| 2026-05-05 20:33 | 51.28751 | 6.77338 | 125 ft | 17 kts | 232° |
| 2026-05-05 20:33 | 51.28667 | 6.77161 | 123 ft | 23 kts | 233° |
| 2026-05-05 20:34 | 51.28563 | 6.76940 | 125 ft | 24 kts | 233° |
| 2026-05-05 20:34 | 51.28460 | 6.76721 | 124 ft | 25 kts | 233° |
| 2026-05-05 20:34 | 51.28360 | 6.76517 | 124 ft | 17 kts | 211° |
| 2026-05-05 20:34 | 51.28257 | 6.76492 | 125 ft | 12 kts | 197° |
| 2026-05-05 20:35 | 51.28185 | 6.76452 | 125 ft | 10 kts | 199° |
| 2026-05-05 20:35 | 51.28124 | 6.76413 | 127 ft | 7 kts | 204° |
| 2026-05-05 20:35 | 51.28078 | 6.76384 | 127 ft | 5 kts | 200° |
| 2026-05-05 20:35 | 51.28054 | 6.76371 | 127 ft | 3 kts | 198° |
| 2026-05-05 20:36 | 51.28039 | 6.76363 | 127 ft | 0 kts | 198° |